Time;durP1;ratioP1;P1;durP2;ratioP2;P2;SDS_P1;SDS_P2;PMS_P1;PMS_P2;Temp;Humidity;BMP_temperature;BMP_pressure;BME280_temperature;BME280_humidity;BME280_pressure;Samples;Min_cycle;Max_cycle;Signal;HPM_P1;HPM_P2
2021/10/14 00:00:14;;;;;;;5.40;3.13;;;18.30;75.80;;;;;;5054569;28;20438;-81
2021/10/14 00:02:40;;;;;;;6.47;3.27;;;18.30;75.80;;;;;;5054261;28;20028;-81
2021/10/14 00:05:07;;;;;;;4.60;2.72;;;18.30;75.80;;;;;;5054764;28;20101;-81
2021/10/14 00:07:33;;;;;;;6.97;3.35;;;18.30;76.50;;;;;;5072482;28;20099;-81
2021/10/14 00:09:59;;;;;;;4.63;3.10;;;18.30;75.70;;;;;;5072541;28;20115;-81
2021/10/14 00:12:24;;;;;;;6.05;3.33;;;18.30;75.70;;;;;;5072149;28;20086;-81
2021/10/14 00:14:50;;;;;;;5.78;3.35;;;18.30;75.70;;;;;;5072372;28;20024;-81
2021/10/14 00:17:15;;;;;;;4.75;2.80;;;18.30;75.70;;;;;;5072752;28;20040;-80
2021/10/14 00:19:41;;;;;;;5.00;3.00;;;18.30;75.70;;;;;;5072307;28;20039;-81
2021/10/14 00:22:07;;;;;;;7.18;3.67;;;18.30;75.70;;;;;;5072191;28;20389;-82
2021/10/14 00:24:32;;;;;;;5.32;3.20;;;18.30;75.60;;;;;;5072151;28;20021;-82
2021/10/14 00:26:58;;;;;;;5.15;3.10;;;18.30;75.60;;;;;;5072370;28;20101;-82
2021/10/14 00:29:24;;;;;;;6.40;3.35;;;18.20;75.50;;;;;;5071992;28;20021;-82
2021/10/14 00:31:49;;;;;;;5.38;3.40;;;18.20;75.50;;;;;;5072201;28;20032;-81
2021/10/14 00:34:15;;;;;;;6.43;3.30;;;18.20;75.50;;;;;;5072581;28;20031;-81
2021/10/14 00:36:41;;;;;;;5.70;3.40;;;18.20;75.50;;;;;;5071700;28;20493;-81
2021/10/14 00:39:07;;;;;;;5.38;3.35;;;18.20;75.50;;;;;;5072170;28;20033;-82
2021/10/14 00:41:32;;;;;;;5.70;3.58;;;18.20;75.50;;;;;;5071704;28;20029;-82
2021/10/14 00:43:58;;;;;;;6.13;3.28;;;18.20;75.50;;;;;;5071815;28;20021;-81
2021/10/14 00:46:24;;;;;;;4.70;2.92;;;18.20;75.50;;;;;;5071839;28;20118;-82
2021/10/14 00:48:51;;;;;;;5.95;3.17;;;18.20;75.40;;;;;;5072050;28;20042;-82
2021/10/14 00:51:16;;;;;;;7.60;3.65;;;18.20;75.40;;;;;;5072353;28;20021;-81
2021/10/14 00:53:42;;;;;;;6.63;2.70;;;18.20;75.40;;;;;;5071666;28;20151;-83
2021/10/14 00:56:08;;;;;;;6.05;3.00;;;18.20;75.40;;;;;;5071466;28;20064;-82
2021/10/14 00:58:35;;;;;;;7.15;3.30;;;18.20;75.30;;;;;;5071528;28;20024;-82
2021/10/14 01:01:05;;;;;;;4.78;2.80;;;18.10;75.30;;;;;;5071755;28;20105;-83
2021/10/14 01:03:31;;;;;;;4.63;2.80;;;18.10;75.30;;;;;;5071215;28;20024;-82
2021/10/14 01:05:57;;;;;;;5.30;2.90;;;18.10;75.20;;;;;;5070223;28;20033;-81
2021/10/14 01:08:24;;;;;;;6.75;3.00;;;18.10;75.20;;;;;;5071427;28;20025;-81
2021/10/14 01:10:50;;;;;;;6.72;3.00;;;18.10;75.90;;;;;;5071428;28;20111;-82
2021/10/14 01:13:16;;;;;;;3.97;2.88;;;18.10;75.10;;;;;;5071807;28;20571;-81
2021/10/14 01:15:44;;;;;;;5.72;3.22;;;18.10;75.10;;;;;;5071198;28;20060;-80
2021/10/14 01:18:11;;;;;;;4.40;2.85;;;18.10;75.10;;;;;;5071517;28;20025;-81
2021/10/14 01:20:36;;;;;;;4.78;2.50;;;18.10;75.10;;;;;;5071219;28;20021;-81
2021/10/14 01:23:02;;;;;;;6.15;3.35;;;18.10;75.10;;;;;;5071326;28;20025;-81
2021/10/14 01:25:30;;;;;;;4.68;3.20;;;18.10;75.10;;;;;;5071080;28;20016;-81
2021/10/14 01:27:56;;;;;;;4.55;3.22;;;18.10;75.00;;;;;;5071407;28;20035;-81
2021/10/14 01:30:22;;;;;;;4.90;2.83;;;18.00;75.00;;;;;;5071261;28;20020;-82
2021/10/14 01:32:49;;;;;;;5.53;3.17;;;18.00;74.90;;;;;;5071548;28;20016;-82
2021/10/14 01:35:18;;;;;;;5.00;3.15;;;18.00;74.90;;;;;;5071237;28;20434;-82
2021/10/14 01:37:45;;;;;;;4.90;2.88;;;18.00;74.90;;;;;;5071540;28;20028;-82
2021/10/14 01:40:11;;;;;;;3.63;2.60;;;18.00;74.90;;;;;;5053180;28;20027;-82
2021/10/14 01:42:37;;;;;;;5.13;2.97;;;18.00;74.90;;;;;;5070953;28;20047;-80
2021/10/14 01:45:04;;;;;;;6.30;3.03;;;18.00;74.80;;;;;;5071200;28;20025;-82
2021/10/14 01:47:31;;;;;;;4.68;2.97;;;18.00;74.80;;;;;;5070666;28;20021;-82
2021/10/14 01:49:57;;;;;;;4.70;2.92;;;18.00;74.80;;;;;;5070835;28;20033;-82
2021/10/14 01:52:23;;;;;;;8.52;3.40;;;18.00;74.80;;;;;;5070616;28;20032;-82
2021/10/14 01:54:49;;;;;;;4.93;3.17;;;18.00;74.80;;;;;;5071310;28;20112;-81
2021/10/14 01:57:15;;;;;;;5.57;3.40;;;18.00;74.80;;;;;;5075435;28;20086;-83
2021/10/14 01:59:41;;;;;;;5.95;3.00;;;18.00;74.80;;;;;;5074894;28;20048;-83
2021/10/14 02:02:06;;;;;;;6.10;3.28;;;18.00;74.70;;;;;;5075130;28;20094;-80
2021/10/14 02:04:32;;;;;;;5.47;3.00;;;18.00;74.70;;;;;;5074561;28;20026;-82
2021/10/14 02:06:58;;;;;;;4.32;2.78;;;18.00;74.70;;;;;;5056761;28;20036;-80
2021/10/14 02:09:23;;;;;;;4.30;2.90;;;18.00;74.70;;;;;;5074771;28;20017;-82
2021/10/14 02:11:49;;;;;;;5.85;3.40;;;17.90;74.60;;;;;;5074952;28;20032;-80
2021/10/14 02:14:15;;;;;;;5.00;2.58;;;17.90;74.60;;;;;;5074915;28;20028;-80
2021/10/14 02:16:41;;;;;;;4.50;3.13;;;17.90;74.50;;;;;;5056495;28;20040;-80
2021/10/14 02:19:06;;;;;;;5.65;3.25;;;17.90;74.50;;;;;;5074787;28;20027;-80
2021/10/14 02:21:32;;;;;;;5.18;2.83;;;17.90;74.50;;;;;;5074212;28;20099;-80
2021/10/14 02:23:58;;;;;;;6.20;3.83;;;17.90;74.40;;;;;;5074581;28;20024;-82
2021/10/14 02:26:24;;;;;;;5.43;2.70;;;17.90;74.40;;;;;;5074368;28;20029;-82
2021/10/14 02:28:49;;;;;;;5.72;3.28;;;17.90;74.40;;;;;;5074554;28;20431;-82
2021/10/14 02:31:15;;;;;;;4.35;2.70;;;17.90;74.40;;;;;;5074713;28;20031;-82
2021/10/14 02:33:40;;;;;;;5.30;3.15;;;17.90;74.40;;;;;;5074319;28;20052;-82
2021/10/14 02:36:06;;;;;;;4.78;2.60;;;17.90;74.30;;;;;;5074184;28;20058;-82
2021/10/14 02:38:32;;;;;;;5.18;2.80;;;17.90;74.30;;;;;;5074183;28;20923;-80
2021/10/14 02:40:57;;;;;;;4.00;2.42;;;17.90;74.30;;;;;;5074349;28;20017;-82
2021/10/14 02:43:23;;;;;;;4.32;2.85;;;17.90;74.30;;;;;;5074030;28;20024;-81
2021/10/14 02:45:48;;;;;;;6.32;2.75;;;17.90;74.30;;;;;;5074258;28;20055;-82
2021/10/14 02:48:14;;;;;;;4.97;2.80;;;17.90;74.20;;;;;;5074433;28;20499;-82
2021/10/14 02:50:40;;;;;;;4.75;2.72;;;17.80;74.10;;;;;;5073633;28;20024;-82
2021/10/14 02:53:06;;;;;;;5.53;2.60;;;17.90;74.20;;;;;;5074143;28;20053;-81
2021/10/14 02:55:31;;;;;;;6.38;2.95;;;17.80;74.10;;;;;;5073801;28;20025;-82
2021/10/14 02:57:57;;;;;;;4.45;2.35;;;17.80;74.10;;;;;;5073945;28;20056;-82
2021/10/14 03:00:23;;;;;;;5.75;2.67;;;17.80;74.10;;;;;;5073927;28;20023;-82
2021/10/14 03:02:48;;;;;;;5.25;2.85;;;17.80;74.10;;;;;;5073835;28;20025;-81
2021/10/14 03:05:14;;;;;;;4.75;2.80;;;17.80;74.10;;;;;;5074215;28;20480;-81
2021/10/14 03:07:39;;;;;;;5.72;3.10;;;17.80;74.10;;;;;;5073637;28;20082;-82
2021/10/14 03:10:07;;;;;;;5.57;3.03;;;17.80;74.00;;;;;;5073896;28;20040;-82
2021/10/14 03:12:32;;;;;;;4.15;2.40;;;17.80;74.00;;;;;;5073460;28;20391;-82
2021/10/14 03:14:58;;;;;;;4.68;2.35;;;17.80;74.10;;;;;;5073807;28;20028;-82
2021/10/14 03:17:23;;;;;;;5.28;2.80;;;17.80;74.00;;;;;;5073218;28;20041;-82
2021/10/14 03:19:49;;;;;;;4.28;2.40;;;17.80;74.00;;;;;;5055683;28;20029;-83
2021/10/14 03:22:15;;;;;;;4.50;2.65;;;17.80;74.00;;;;;;5073472;28;20025;-83
2021/10/14 03:24:40;;;;;;;4.35;2.72;;;17.80;74.00;;;;;;5073228;28;20017;-82
2021/10/14 03:27:06;;;;;;;4.05;2.60;;;17.80;74.00;;;;;;5073555;28;20029;-82
2021/10/14 03:29:31;;;;;;;5.05;2.45;;;17.80;74.00;;;;;;5073223;28;20095;-81
2021/10/14 03:31:57;;;;;;;4.50;2.78;;;17.80;73.90;;;;;;5073312;28;20107;-82
2021/10/14 03:34:23;;;;;;;4.22;2.60;;;17.70;73.80;;;;;;5073098;28;20021;-82
2021/10/14 03:36:48;;;;;;;4.57;2.65;;;17.70;73.80;;;;;;5073051;28;20064;-82
2021/10/14 03:39:14;;;;;;;4.22;2.17;;;17.70;73.80;;;;;;5073757;28;20095;-81
2021/10/14 03:41:39;;;;;;;4.20;2.58;;;17.70;73.80;;;;;;5073086;28;20028;-82
2021/10/14 03:44:05;;;;;;;5.25;2.20;;;17.70;73.80;;;;;;5088829;28;20020;-81
2021/10/14 03:46:31;;;;;;;4.20;2.22;;;17.70;73.80;;;;;;5072765;28;20056;-82
2021/10/14 03:48:56;;;;;;;3.92;2.13;;;17.70;73.80;;;;;;5072950;28;20032;-82
2021/10/14 03:51:22;;;;;;;4.40;2.65;;;17.70;73.80;;;;;;5072579;28;20040;-80
2021/10/14 03:53:47;;;;;;;4.43;2.83;;;17.70;73.80;;;;;;5073337;28;20028;-81
2021/10/14 03:56:13;;;;;;;3.63;2.33;;;17.70;73.90;;;;;;5073123;28;20043;-80
2021/10/14 03:58:39;;;;;;;4.72;2.50;;;17.70;73.80;;;;;;5072655;28;20024;-82
2021/10/14 04:01:04;;;;;;;4.30;2.25;;;17.70;73.80;;;;;;5072693;28;20392;-81
2021/10/14 04:03:30;;;;;;;4.47;2.58;;;17.70;73.80;;;;;;5072401;28;20021;-81
2021/10/14 04:05:56;;;;;;;4.45;2.15;;;17.70;73.90;;;;;;5072782;28;20446;-82
2021/10/14 04:08:21;;;;;;;3.80;2.20;;;17.70;73.80;;;;;;5072521;28;20020;-81
2021/10/14 04:10:47;;;;;;;3.85;2.08;;;17.70;73.90;;;;;;5073267;28;20388;-82
2021/10/14 04:13:12;;;;;;;3.20;2.03;;;17.70;73.90;;;;;;5072694;28;20041;-83
2021/10/14 04:15:38;;;;;;;4.53;2.13;;;17.70;73.90;;;;;;5072158;28;20028;-82
2021/10/14 04:18:04;;;;;;;4.10;2.60;;;17.70;73.80;;;;;;5053949;28;20028;-83
2021/10/14 04:20:29;;;;;;;3.40;2.20;;;17.60;73.70;;;;;;5072231;28;20022;-80
2021/10/14 04:22:55;;;;;;;4.13;2.10;;;17.60;73.70;;;;;;5072119;28;20029;-82
2021/10/14 04:25:21;;;;;;;4.03;2.05;;;17.70;73.80;;;;;;5072234;28;20023;-81
2021/10/14 04:27:47;;;;;;;4.60;2.72;;;17.60;73.70;;;;;;5072680;28;20024;-82
2021/10/14 04:30:13;;;;;;;3.47;2.13;;;17.60;73.80;;;;;;5072540;28;20047;-82
2021/10/14 04:32:39;;;;;;;6.90;2.35;;;17.60;73.70;;;;;;5071888;28;20036;-82
2021/10/14 04:35:05;;;;;;;6.07;2.47;;;17.60;73.70;;;;;;5072090;28;20028;-82
2021/10/14 04:37:31;;;;;;;4.80;2.30;;;17.60;73.70;;;;;;5071964;28;20033;-80
2021/10/14 04:39:57;;;;;;;3.28;2.05;;;17.60;73.70;;;;;;5072067;28;20047;-81
2021/10/14 04:42:22;;;;;;;2.60;1.65;;;17.60;73.70;;;;;;5071815;28;20025;-81
2021/10/14 04:44:48;;;;;;;3.13;2.00;;;17.60;73.70;;;;;;5072085;28;20104;-81
2021/10/14 04:47:18;;;;;;;3.30;1.83;;;17.60;73.70;;;;;;5072073;28;20021;-81
2021/10/14 04:49:45;;;;;;;5.13;2.05;;;17.60;73.70;;;;;;5072112;28;20035;-81
2021/10/14 04:52:11;;;;;;;3.80;2.13;;;17.60;73.70;;;;;;5053977;28;20020;-82
2021/10/14 04:54:37;;;;;;;4.30;2.00;;;17.60;73.70;;;;;;5071638;28;20106;-82
2021/10/14 04:57:02;;;;;;;4.10;1.80;;;17.60;73.70;;;;;;5071591;28;20078;-80
2021/10/14 04:59:28;;;;;;;3.17;1.90;;;17.60;73.70;;;;;;5071611;28;20023;-81
2021/10/14 05:01:54;;;;;;;3.05;2.00;;;17.60;73.70;;;;;;5071491;28;20040;-82
2021/10/14 05:04:19;;;;;;;3.70;2.10;;;17.60;73.80;;;;;;5071140;28;20028;-81
2021/10/14 05:06:45;;;;;;;3.35;2.03;;;17.70;73.90;;;;;;5071867;28;20024;-81
2021/10/14 05:09:11;;;;;;;4.22;1.80;;;17.70;73.90;;;;;;5071717;28;20017;-81
2021/10/14 05:11:36;;;;;;;2.78;1.60;;;17.70;73.90;;;;;;5071158;28;20020;-81
2021/10/14 05:14:02;;;;;;;3.28;1.67;;;17.70;74.00;;;;;;5071127;28;20032;-81
2021/10/14 05:16:32;;;;;;;4.80;1.75;;;17.80;74.10;;;;;;5071284;28;20036;-83
2021/10/14 05:18:58;;;;;;;3.67;2.13;;;17.80;74.10;;;;;;5071489;28;20439;-83
2021/10/14 05:21:24;;;;;;;4.38;1.85;;;17.80;74.10;;;;;;5071060;28;20095;-83
2021/10/14 05:23:49;;;;;;;3.92;1.92;;;17.80;74.10;;;;;;5071573;28;20112;-82
2021/10/14 05:26:15;;;;;;;2.97;1.52;;;17.90;74.20;;;;;;5071314;28;20023;-82
2021/10/14 05:28:41;;;;;;;4.32;1.88;;;17.90;74.10;;;;;;5071138;28;20066;-82
2021/10/14 05:31:07;;;;;;;3.13;1.70;;;17.90;74.10;;;;;;5070273;28;20104;-83
2021/10/14 05:33:33;;;;;;;3.45;1.70;;;17.90;74.10;;;;;;5070008;28;20484;-83
2021/10/14 05:35:58;;;;;;;5.18;1.83;;;18.00;74.10;;;;;;5071211;28;20063;-83
2021/10/14 05:38:24;;;;;;;3.42;1.60;;;18.00;74.10;;;;;;5071011;28;20465;-88
2021/10/14 05:40:50;;;;;;;4.28;1.70;;;18.00;74.00;;;;;;5071069;28;20511;-81
2021/10/14 05:43:16;;;;;;;3.97;1.35;;;18.00;74.00;;;;;;5071540;28;20036;-84
2021/10/14 05:45:42;;;;;;;5.35;1.73;;;18.10;74.10;;;;;;5070602;28;20087;-83
2021/10/14 05:48:07;;;;;;;3.38;1.63;;;18.10;74.10;;;;;;5071163;28;20036;-83
2021/10/14 05:50:33;;;;;;;3.78;1.80;;;18.20;74.10;;;;;;5070976;28;20437;-85
2021/10/14 05:52:59;;;;;;;2.78;1.60;;;18.20;74.10;;;;;;5070800;28;20408;-83
2021/10/14 05:55:24;;;;;;;6.40;1.85;;;18.20;74.20;;;;;;5070452;28;20028;-80
2021/10/14 05:57:50;;;;;;;2.72;1.30;;;18.30;74.30;;;;;;5052708;28;20032;-83
2021/10/14 06:00:16;;;;;;;3.28;1.30;;;18.20;75.10;;;;;;5070839;28;20013;-84
2021/10/14 06:02:42;;;;;;;2.60;1.33;;;18.30;74.50;;;;;;5070621;28;20037;-85
2021/10/14 06:05:08;;;;;;;4.55;1.25;;;18.30;74.80;;;;;;5053291;28;20135;-83
2021/10/14 06:07:34;;;;;;;5.75;2.03;;;18.40;75.20;;;;;;5073287;28;20060;-81
2021/10/14 06:09:59;;;;;;;4.18;2.42;;;18.40;75.30;;;;;;5070767;28;20113;-80
2021/10/14 06:12:25;;;;;;;5.03;3.40;;;18.40;75.60;;;;;;5070501;28;20189;-83
2021/10/14 06:14:51;;;;;;;6.57;4.13;;;18.50;75.50;;;;;;5070715;28;20638;-83
2021/10/14 06:17:16;;;;;;;8.40;3.70;;;18.50;75.50;;;;;;5052997;28;20542;-81
2021/10/14 06:19:42;;;;;;;6.00;3.60;;;18.50;75.50;;;;;;5052308;28;20017;-80
2021/10/14 06:22:08;;;;;;;7.30;4.13;;;18.60;75.40;;;;;;5052446;28;20060;-86
2021/10/14 06:24:33;;;;;;;6.28;3.42;;;18.60;75.50;;;;;;5069012;28;20020;-84
2021/10/14 06:26:59;;;;;;;5.55;3.25;;;18.60;75.50;;;;;;5069165;28;20032;-83
2021/10/14 06:29:25;;;;;;;5.85;3.22;;;18.60;75.50;;;;;;5069455;28;20411;-86
2021/10/14 06:31:51;;;;;;;5.82;2.97;;;18.60;75.50;;;;;;5070738;28;20082;-82
2021/10/14 06:34:17;;;;;;;5.18;2.72;;;18.70;75.40;;;;;;5070875;28;20028;-81
2021/10/14 06:36:42;;;;;;;3.78;2.50;;;18.70;75.20;;;;;;5070342;28;20502;-85
2021/10/14 06:39:08;;;;;;;4.10;2.40;;;18.70;75.10;;;;;;5070562;28;20024;-84
2021/10/14 06:41:33;;;;;;;5.10;2.58;;;18.70;75.10;;;;;;5071476;28;20029;-86
2021/10/14 06:43:59;;;;;;;7.38;3.13;;;18.70;75.10;;;;;;5074268;28;20028;-80
2021/10/14 06:46:25;;;;;;;4.85;2.28;;;18.70;75.00;;;;;;5055693;28;20031;-80
2021/10/14 06:48:50;;;;;;;4.88;2.42;;;18.70;74.90;;;;;;5074258;28;20028;-84
2021/10/14 06:51:16;;;;;;;4.13;2.55;;;18.70;74.70;;;;;;5074321;28;20057;-88
2021/10/14 06:53:42;;;;;;;4.85;2.47;;;18.70;74.50;;;;;;5073764;28;20032;-80
2021/10/14 06:56:07;;;;;;;4.00;2.30;;;18.70;74.50;;;;;;5073486;28;20102;-80
2021/10/14 06:58:33;;;;;;;4.28;2.08;;;18.70;74.40;;;;;;5073652;28;20025;-83
2021/10/14 07:00:58;;;;;;;5.28;2.88;;;18.80;74.50;;;;;;5072979;28;20027;-83
2021/10/14 07:03:24;;;;;;;5.18;2.33;;;18.80;74.40;;;;;;5073744;28;20090;-83
2021/10/14 07:05:50;;;;;;;4.93;2.03;;;18.70;74.30;;;;;;5073982;28;20519;-83
2021/10/14 07:08:17;;;;;;;6.03;1.98;;;18.70;74.20;;;;;;5074220;28;20021;-83
2021/10/14 07:10:46;;;;;;;6.07;2.42;;;18.70;74.10;;;;;;5073790;28;20070;-83
2021/10/14 07:13:12;;;;;;;5.72;2.15;;;18.70;74.10;;;;;;5073511;28;20480;-83
2021/10/14 07:15:39;;;;;;;3.58;2.33;;;18.70;74.00;;;;;;5073578;28;20027;-84
2021/10/14 07:18:06;;;;;;;5.40;2.67;;;18.70;74.70;;;;;;5073689;28;20028;-83
2021/10/14 07:20:31;;;;;;;6.72;2.38;;;18.70;74.00;;;;;;5073549;28;20025;-83
2021/10/14 07:22:57;;;;;;;4.20;1.90;;;18.70;74.00;;;;;;5073671;28;20465;-82
2021/10/14 07:25:22;;;;;;;6.90;2.42;;;18.70;73.90;;;;;;5073363;28;20036;-83
2021/10/14 07:27:48;;;;;;;4.90;1.90;;;18.60;74.50;;;;;;5073508;28;20017;-82
2021/10/14 07:30:14;;;;;;;4.35;1.95;;;18.60;73.70;;;;;;5073909;28;20040;-84
2021/10/14 07:32:39;;;;;;;4.82;1.58;;;18.60;73.80;;;;;;5073300;28;20553;-83
2021/10/14 07:35:06;;;;;;;3.35;1.75;;;18.60;73.90;;;;;;5073427;28;20031;-83
2021/10/14 07:37:32;;;;;;;5.00;1.73;;;18.60;74.70;;;;;;5073092;28;20158;-83
2021/10/14 07:39:58;;;;;;;3.90;1.63;;;18.60;74.00;;;;;;5073443;28;20447;-84
2021/10/14 07:42:23;;;;;;;3.75;2.03;;;18.60;74.00;;;;;;5073079;28;20155;-84
2021/10/14 07:44:49;;;;;;;3.55;1.88;;;18.60;74.00;;;;;;5073192;28;20034;-84
2021/10/14 07:47:15;;;;;;;3.20;1.33;;;18.60;74.00;;;;;;5073668;28;20092;-83
2021/10/14 07:49:41;;;;;;;4.00;1.73;;;18.60;74.00;;;;;;5072888;28;20047;-82
2021/10/14 07:52:06;;;;;;;3.55;1.80;;;18.50;74.00;;;;;;5073094;28;20435;-83
2021/10/14 07:54:32;;;;;;;5.75;1.67;;;18.50;74.00;;;;;;5071976;28;20094;-82
2021/10/14 07:56:58;;;;;;;3.85;2.10;;;18.50;74.00;;;;;;5072962;28;20028;-83
2021/10/14 07:59:23;;;;;;;3.90;1.58;;;18.50;74.00;;;;;;5072815;28;20048;-83
2021/10/14 08:01:49;;;;;;;2.90;1.52;;;18.50;74.10;;;;;;5072867;28;20082;-83
2021/10/14 08:04:14;;;;;;;4.97;1.88;;;18.40;74.00;;;;;;5055154;28;20032;-83
2021/10/14 08:06:40;;;;;;;3.92;1.70;;;18.40;74.00;;;;;;5072717;28;20456;-83
2021/10/14 08:09:06;;;;;;;5.72;2.33;;;18.40;74.00;;;;;;5072808;28;20504;-82
2021/10/14 08:11:31;;;;;;;5.68;1.88;;;18.40;74.80;;;;;;5072537;28;20060;-81
2021/10/14 08:13:57;;;;;;;4.22;1.88;;;18.40;74.00;;;;;;5054310;28;20102;-82
2021/10/14 08:16:23;;;;;;;4.30;1.52;;;18.40;74.10;;;;;;5072369;28;20040;-81
2021/10/14 08:18:49;;;;;;;4.05;1.75;;;18.40;74.10;;;;;;5072694;28;20120;-82
2021/10/14 08:21:15;;;;;;;4.40;1.73;;;18.40;74.10;;;;;;5072807;28;20020;-83
2021/10/14 08:23:40;;;;;;;2.97;1.70;;;18.40;74.20;;;;;;5072224;28;20024;-80
2021/10/14 08:26:37;;;;;;;4.22;1.73;;;18.30;74.10;;;;;;5072378;28;20017;-84
2021/10/14 08:29:17;;;;;;;2.95;1.60;;;18.30;74.10;;;;;;5072323;28;20114;-82
2021/10/14 08:31:44;;;;;;;2.97;1.20;;;18.30;74.20;;;;;;5072617;28;20046;-83
2021/10/14 08:34:09;;;;;;;5.20;1.80;;;18.30;74.10;;;;;;5072389;28;20020;-84
2021/10/14 08:36:35;;;;;;;3.75;1.75;;;18.30;74.20;;;;;;5071874;28;20472;-83
2021/10/14 08:39:01;;;;;;;2.50;1.20;;;18.30;74.20;;;;;;5054371;28;20052;-83
2021/10/14 08:41:27;;;;;;;3.08;1.33;;;18.30;74.30;;;;;;5071917;28;20447;-83
2021/10/14 08:43:55;;;;;;;5.63;1.80;;;18.30;74.20;;;;;;5072236;28;20033;-83
2021/10/14 08:46:21;;;;;;;2.45;1.10;;;18.20;74.20;;;;;;5071877;28;20483;-84
2021/10/14 08:48:47;;;;;;;3.30;1.50;;;18.20;74.20;;;;;;5072231;28;20107;-84
2021/10/14 08:51:13;;;;;;;1.90;1.38;;;18.20;74.20;;;;;;5072245;28;20112;-83
2021/10/14 08:53:38;;;;;;;2.83;1.33;;;18.20;74.90;;;;;;5071703;28;20056;-84
2021/10/14 08:56:05;;;;;;;3.70;1.15;;;18.20;74.20;;;;;;5071816;28;20029;-83
2021/10/14 08:58:30;;;;;;;4.55;1.30;;;18.20;74.20;;;;;;5071618;28;20029;-83
2021/10/14 09:01:08;;;;;;;2.70;1.35;;;18.20;74.10;;;;;;5071762;28;20082;-83
2021/10/14 09:03:36;;;;;;;2.78;1.40;;;18.20;74.20;;;;;;5071487;28;20028;-82
2021/10/14 09:06:07;;;;;;;2.58;1.30;;;18.20;74.20;;;;;;5071357;28;20138;-82
2021/10/14 09:08:46;;;;;;;3.97;1.20;;;18.20;74.20;;;;;;5071572;28;20488;-83
2021/10/14 09:11:17;;;;;;;3.75;1.20;;;18.20;74.20;;;;;;5071530;28;20511;-83
2021/10/14 09:13:57;;;;;;;3.72;1.60;;;18.20;74.20;;;;;;5071889;28;20057;-83
2021/10/14 09:16:34;;;;;;;3.05;1.40;;;18.10;74.20;;;;;;5071251;28;20035;-83
2021/10/14 09:19:20;;;;;;;2.95;1.30;;;18.10;74.30;;;;;;5071484;28;20054;-83
2021/10/14 09:21:48;;;;;;;3.22;2.08;;;18.10;74.30;;;;;;5071835;28;20024;-83
2021/10/14 09:24:38;;;;;;;2.03;1.13;;;18.10;74.30;;;;;;5071643;28;20062;-83
2021/10/14 09:27:13;;;;;;;4.15;1.85;;;18.10;74.40;;;;;;5071031;28;20484;-83
2021/10/14 09:29:39;;;;;;;5.38;1.48;;;18.10;74.40;;;;;;5071078;28;20431;-83
2021/10/14 09:32:18;;;;;;;2.78;1.20;;;18.10;74.50;;;;;;5071334;28;20031;-83
2021/10/14 09:34:49;;;;;;;2.55;1.35;;;18.10;74.50;;;;;;5071661;28;20025;-83
2021/10/14 09:37:15;;;;;;;4.20;1.55;;;18.10;74.50;;;;;;5071582;28;20039;-82
2021/10/14 09:40:09;;;;;;;4.00;1.48;;;18.10;74.60;;;;;;5053021;28;20027;-82
2021/10/14 09:42:53;;;;;;;3.60;1.48;;;18.10;74.50;;;;;;5053010;28;20025;-82
2021/10/14 09:45:30;;;;;;;1.70;1.00;;;18.10;74.60;;;;;;5071465;28;20021;-82
2021/10/14 09:48:11;;;;;;;2.70;1.23;;;18.10;74.60;;;;;;5071114;28;20037;-82
2021/10/14 09:50:42;;;;;;;2.78;1.25;;;18.00;74.50;;;;;;5071002;28;20027;-82
2021/10/14 09:53:11;;;;;;;2.28;1.00;;;18.00;74.60;;;;;;5071176;28;20086;-83
2021/10/14 09:55:37;;;;;;;3.03;1.17;;;18.10;74.60;;;;;;5070803;28;20170;-82
2021/10/14 09:58:05;;;;;;;4.03;1.42;;;18.10;74.60;;;;;;5071014;28;20057;-83
2021/10/14 10:00:31;;;;;;;2.72;1.23;;;18.10;74.60;;;;;;5070834;28;20013;-81
2021/10/14 10:02:59;;;;;;;3.22;1.42;;;18.10;74.60;;;;;;5071132;28;20052;-81
2021/10/14 10:05:26;;;;;;;2.40;1.40;;;18.10;74.70;;;;;;5070824;28;20025;-82
2021/10/14 10:07:52;;;;;;;2.35;1.23;;;18.00;74.60;;;;;;5071117;28;20032;-83
2021/10/14 10:10:21;;;;;;;2.55;1.13;;;18.00;75.10;;;;;;5070741;28;20032;-79
2021/10/14 10:12:48;;;;;;;3.08;1.13;;;18.00;76.60;;;;;;5071226;28;20039;-83
2021/10/14 10:15:14;;;;;;;3.15;1.20;;;18.10;76.90;;;;;;5071294;28;20048;-83
2021/10/14 10:17:42;;;;;;;2.42;1.17;;;18.00;77.50;;;;;;5073639;28;20090;-84
2021/10/14 10:20:10;;;;;;;3.42;1.00;;;18.10;77.90;;;;;;5074915;28;20096;-83
2021/10/14 10:22:36;;;;;;;3.13;1.35;;;18.10;78.10;;;;;;5074619;28;20020;-84
2021/10/14 10:25:36;;;;;;;2.97;1.17;;;18.10;78.60;;;;;;5074763;28;20044;-81
2021/10/14 10:28:05;;;;;;;2.92;1.05;;;18.00;79.10;;;;;;5074799;28;20044;-83
2021/10/14 10:30:34;;;;;;;2.53;1.20;;;18.10;79.10;;;;;;5074495;28;20391;-79
2021/10/14 10:33:01;;;;;;;2.78;1.20;;;18.10;79.10;;;;;;5074540;28;20028;-79
2021/10/14 10:35:46;;;;;;;3.08;1.30;;;18.00;79.00;;;;;;5074259;28;20032;-79
2021/10/14 10:38:22;;;;;;;3.33;1.00;;;18.00;78.90;;;;;;5056641;28;20037;-79
2021/10/14 10:40:50;;;;;;;3.08;1.40;;;18.10;79.00;;;;;;5074480;28;20025;-79
2021/10/14 10:43:22;;;;;;;2.85;1.23;;;18.10;78.90;;;;;;5074593;28;20472;-79
2021/10/14 10:45:52;;;;;;;2.80;1.10;;;18.10;78.90;;;;;;5074175;28;20031;-81
2021/10/14 10:48:35;;;;;;;2.28;1.00;;;18.10;78.70;;;;;;5074213;28;20031;-82
2021/10/14 10:51:02;;;;;;;4.18;1.13;;;18.10;78.70;;;;;;5074305;28;20017;-83
2021/10/14 10:53:45;;;;;;;2.35;1.00;;;18.10;78.70;;;;;;5074030;28;20086;-82
2021/10/14 10:56:45;;;;;;;3.33;1.15;;;18.00;78.60;;;;;;5073990;28;20031;-84
2021/10/14 10:59:10;;;;;;;3.47;1.20;;;18.10;78.50;;;;;;5041370;28;20048;-82
2021/10/14 11:01:36;;;;;;;2.65;1.10;;;18.10;78.40;;;;;;5073757;28;20027;-82
2021/10/14 11:04:06;;;;;;;2.05;1.00;;;18.10;78.40;;;;;;5073971;28;20060;-83
2021/10/14 11:06:34;;;;;;;2.88;1.25;;;18.10;78.30;;;;;;5073641;28;20016;-82
2021/10/14 11:09:11;;;;;;;3.50;1.40;;;18.10;78.20;;;;;;5073945;28;20027;-82
2021/10/14 11:11:37;;;;;;;2.85;1.15;;;18.10;78.90;;;;;;5055539;28;20598;-84
2021/10/14 11:14:04;;;;;;;2.80;1.10;;;18.10;78.10;;;;;;5073613;28;20039;-84
2021/10/14 11:16:31;;;;;;;2.08;1.00;;;18.10;78.10;;;;;;5073010;28;20036;-80
2021/10/14 11:18:58;;;;;;;4.65;1.38;;;18.10;77.80;;;;;;5072565;28;20042;-81
2021/10/14 11:21:25;;;;;;;5.40;1.10;;;18.10;77.70;;;;;;5073303;28;20033;-81
2021/10/14 11:23:57;;;;;;;3.17;1.20;;;18.10;77.70;;;;;;5073521;28;20021;-81
2021/10/14 11:26:32;;;;;;;1.80;1.00;;;18.10;77.70;;;;;;5055165;28;20111;-86
2021/10/14 11:29:09;;;;;;;2.75;0.90;;;18.10;77.50;;;;;;5070499;28;20542;-85
2021/10/14 11:31:41;;;;;;;3.30;1.65;;;18.10;77.70;;;;;;5071570;28;20025;-83
2021/10/14 11:34:21;;;;;;;3.25;1.10;;;18.20;77.40;;;;;;5070111;28;20021;-87
2021/10/14 11:37:01;;;;;;;2.08;1.05;;;18.10;77.30;;;;;;5071042;28;20576;-86
2021/10/14 11:39:36;;;;;;;2.92;1.30;;;18.10;77.30;;;;;;5070772;28;20028;-86
2021/10/14 11:42:09;;;;;;;3.00;1.10;;;18.20;77.30;;;;;;5069379;28;20027;-80
2021/10/14 11:44:39;;;;;;;5.07;1.15;;;18.20;77.30;;;;;;5072246;28;20453;-77
2021/10/14 11:47:07;;;;;;;4.88;1.60;;;18.20;77.30;;;;;;5070375;28;20032;-81
2021/10/14 11:49:34;;;;;;;1.85;1.10;;;18.20;77.20;;;;;;5072455;28;20046;-77
2021/10/14 11:52:06;;;;;;;2.90;1.00;;;18.20;77.20;;;;;;5072523;28;20028;-82
2021/10/14 11:54:35;;;;;;;3.50;0.95;;;18.20;77.10;;;;;;5072852;28;20024;-82
2021/10/14 11:57:02;;;;;;;2.75;1.13;;;18.30;77.30;;;;;;5072440;28;20025;-82
2021/10/14 11:59:29;;;;;;;1.80;1.00;;;18.30;77.40;;;;;;5072120;28;20024;-79
2021/10/14 12:02:08;;;;;;;3.30;1.10;;;18.30;78.10;;;;;;5072344;28;20075;-79
2021/10/14 12:04:39;;;;;;;2.88;1.00;;;18.30;77.30;;;;;;5072548;28;20017;-79
2021/10/14 12:07:06;;;;;;;7.03;1.10;;;18.30;77.70;;;;;;5072901;28;20020;-79
2021/10/14 12:09:32;;;;;;;2.58;1.30;;;18.40;77.60;;;;;;5072441;28;20025;-79
2021/10/14 12:12:03;;;;;;;4.32;1.50;;;18.40;77.70;;;;;;5072659;28;20020;-80
2021/10/14 12:14:29;;;;;;;3.45;1.40;;;18.40;77.70;;;;;;5054241;28;20036;-79
2021/10/14 12:17:09;;;;;;;2.65;1.15;;;18.40;77.80;;;;;;5072359;28;20044;-79
2021/10/14 12:19:40;;;;;;;3.78;1.30;;;18.50;77.80;;;;;;5054024;28;20024;-80
2021/10/14 12:22:10;;;;;;;2.95;1.00;;;18.50;77.80;;;;;;5072528;28;20086;-82
2021/10/14 12:24:55;;;;;;;3.20;1.35;;;18.50;77.80;;;;;;5072213;28;20025;-81
2021/10/14 12:27:21;;;;;;;3.00;1.00;;;18.60;77.70;;;;;;5072256;28;20029;-82
2021/10/14 12:29:50;;;;;;;2.55;1.13;;;18.60;77.70;;;;;;5072770;28;20103;-81
2021/10/14 12:32:20;;;;;;;2.38;0.82;;;18.60;77.70;;;;;;5072205;28;20078;-82
2021/10/14 12:34:53;;;;;;;2.60;1.00;;;18.60;77.70;;;;;;5072536;28;20099;-81
2021/10/14 12:37:33;;;;;;;1.92;0.90;;;18.60;77.60;;;;;;5071979;28;20479;-79
2021/10/14 12:40:20;;;;;;;2.38;1.02;;;18.70;77.50;;;;;;5071879;28;20100;-80
2021/10/14 12:48:21;;;;;;;;;;;18.80;77.40;;;;;;5072453;28;20032;-80
2021/10/14 12:51:18;;;;;;;1.92;1.05;;;18.80;77.30;;;;;;5072379;28;19911;-80
2021/10/14 12:54:02;;;;;;;2.05;0.95;;;18.80;77.20;;;;;;5072314;28;20112;-78
2021/10/14 12:56:38;;;;;;;3.45;1.15;;;18.80;77.10;;;;;;5053541;28;20067;-81